アテネ の空港の天気 - METARとTAF

アテネ国際空港 ( LGAV / ATH ) - ギリシャ アテネ
飛行場実況気象(Metar)
観測時間12/10 07:20 EET (12/10 05:20 UTC)
風向・風速北東 2m/s
視程10km以上
天気現象
全天の8割程度の雲 雲底高度 910m
全天の8割程度の雲 雲底高度 2130m
気温12℃
湿度62%
気圧1005hPa
METARLGAV 100520Z 05003KT 9999 BKN030 BKN070 12/05 Q1005 NOSIG
過去の天気等 Google飛行場航空写真 Wunderground天気予報

過去48時間のMETAR

飛行場予報(TAF)
発表時間: 12/10 07:00 EET (12/10 05:00 UTC)
予報対象時間: 10日8時 EET ~ 11日8時 EET
風向・風速南南西 6m/s
視程10km以上
少しの雲 雲底高度 760m
全天の4割程度の雲 雲底高度 2130m
10日11時 EET から 確率 40% で
視程5000m
天気現象
全天の4割程度の雲 雲底高度 460m
全天の8割程度の雲 雲底高度 1830m
10日12時 EET ~ 10日17時 EET に 確率 30% で一時的に
視程3000m
天気現象雷雨
少しの雲 雲底高度 300m
少しの積乱雲 雲底高度 550m
全天の4割程度の雲 雲底高度 610m
全天の8割程度の雲 雲底高度 1830m
10日12時 EET ~ 10日14時 EET に徐々に
風向・風速北北西 8m/s
TAF LGAV 100500Z 1006/1106 21012KT 9999 FEW025 SCT070
PROB40 1009/1018 5000 RA SCT015 BKN060
PROB30 TEMPO 1010/1015 3000 TSRA FEW010 FEW018CB SCT020 BKN060
BECMG 1010/1012 33015KT